sensor_id;sensor_type;location;lat;lon;timestamp;P1;durP1;ratioP1;P2;durP2;ratioP2
19519;SDS011;9904;52.246;20.898;2023-03-04T04:27:48;51.10;;;20.10;;
19519;SDS011;9904;52.246;20.898;2023-03-04T04:30:15;48.53;;;19.97;;
19519;SDS011;9904;52.246;20.898;2023-03-04T04:32:41;52.33;;;20.53;;
19519;SDS011;9904;52.246;20.898;2023-03-04T04:35:08;52.37;;;20.23;;
19519;SDS011;9904;52.246;20.898;2023-03-04T04:37:35;48.60;;;18.83;;
19519;SDS011;9904;52.246;20.898;2023-03-04T04:40:01;46.27;;;19.13;;
19519;SDS011;9904;52.246;20.898;2023-03-04T04:42:28;45.17;;;18.03;;
19519;SDS011;9904;52.246;20.898;2023-03-04T04:44:55;48.33;;;19.73;;
19519;SDS011;9904;52.246;20.898;2023-03-04T04:47:22;47.90;;;19.10;;
19519;SDS011;9904;52.246;20.898;2023-03-04T04:49:49;46.90;;;19.70;;
19519;SDS011;9904;52.246;20.898;2023-03-04T04:52:15;43.33;;;17.87;;
19519;SDS011;9904;52.246;20.898;2023-03-04T04:54:42;45.50;;;18.60;;
19519;SDS011;9904;52.246;20.898;2023-03-04T04:57:08;52.03;;;19.03;;
19519;SDS011;9904;52.246;20.898;2023-03-04T04:59:35;48.57;;;19.50;;
19519;SDS011;9904;52.246;20.898;2023-03-04T05:02:01;53.13;;;19.90;;
19519;SDS011;9904;52.246;20.898;2023-03-04T05:04:28;46.67;;;19.70;;
19519;SDS011;9904;52.246;20.898;2023-03-04T05:06:54;47.80;;;18.73;;
19519;SDS011;9904;52.246;20.898;2023-03-04T05:09:22;50.27;;;19.77;;
19519;SDS011;9904;52.246;20.898;2023-03-04T05:11:49;51.53;;;20.20;;
19519;SDS011;9904;52.246;20.898;2023-03-04T05:14:15;56.23;;;21.10;;
19519;SDS011;9904;52.246;20.898;2023-03-04T05:16:42;49.07;;;18.57;;
19519;SDS011;9904;52.246;20.898;2023-03-04T05:19:08;42.80;;;19.03;;
19519;SDS011;9904;52.246;20.898;2023-03-04T05:21:35;51.57;;;19.80;;
19519;SDS011;9904;52.246;20.898;2023-03-04T05:24:02;49.20;;;20.67;;
19519;SDS011;9904;52.246;20.898;2023-03-04T05:26:28;49.53;;;19.13;;
19519;SDS011;9904;52.246;20.898;2023-03-04T05:28:55;49.77;;;19.67;;
19519;SDS011;9904;52.246;20.898;2023-03-04T05:31:21;42.87;;;17.70;;
19519;SDS011;9904;52.246;20.898;2023-03-04T05:33:48;45.10;;;18.83;;
19519;SDS011;9904;52.246;20.898;2023-03-04T05:36:15;49.03;;;18.27;;
19519;SDS011;9904;52.246;20.898;2023-03-04T05:38:41;45.50;;;19.27;;
19519;SDS011;9904;52.246;20.898;2023-03-04T05:41:08;46.10;;;18.73;;
19519;SDS011;9904;52.246;20.898;2023-03-04T05:43:35;48.57;;;18.93;;
19519;SDS011;9904;52.246;20.898;2023-03-04T05:46:02;40.57;;;17.53;;
19519;SDS011;9904;52.246;20.898;2023-03-04T05:48:29;42.33;;;17.70;;
19519;SDS011;9904;52.246;20.898;2023-03-04T05:50:57;45.90;;;18.23;;
19519;SDS011;9904;52.246;20.898;2023-03-04T05:53:25;46.37;;;18.17;;
19519;SDS011;9904;52.246;20.898;2023-03-04T05:55:51;51.33;;;18.67;;
19519;SDS011;9904;52.246;20.898;2023-03-04T05:58:18;40.57;;;17.90;;
19519;SDS011;9904;52.246;20.898;2023-03-04T06:00:45;46.73;;;18.47;;
19519;SDS011;9904;52.246;20.898;2023-03-04T06:03:13;38.87;;;16.53;;
19519;SDS011;9904;52.246;20.898;2023-03-04T06:05:42;50.57;;;17.17;;
19519;SDS011;9904;52.246;20.898;2023-03-04T06:08:09;40.10;;;17.23;;
19519;SDS011;9904;52.246;20.898;2023-03-04T06:10:36;42.13;;;17.17;;
19519;SDS011;9904;52.246;20.898;2023-03-04T06:13:04;40.57;;;16.10;;
19519;SDS011;9904;52.246;20.898;2023-03-04T06:15:30;39.80;;;16.90;;
19519;SDS011;9904;52.246;20.898;2023-03-04T06:17:57;41.00;;;16.90;;
19519;SDS011;9904;52.246;20.898;2023-03-04T06:20:24;37.70;;;16.67;;
19519;SDS011;9904;52.246;20.898;2023-03-04T06:22:50;45.00;;;17.83;;
19519;SDS011;9904;52.246;20.898;2023-03-04T06:25:17;36.27;;;16.37;;
19519;SDS011;9904;52.246;20.898;2023-03-04T06:27:44;47.80;;;17.97;;
19519;SDS011;9904;52.246;20.898;2023-03-04T06:30:10;42.40;;;17.70;;
19519;SDS011;9904;52.246;20.898;2023-03-04T06:32:37;41.70;;;16.93;;
19519;SDS011;9904;52.246;20.898;2023-03-04T06:35:04;47.13;;;18.13;;
19519;SDS011;9904;52.246;20.898;2023-03-04T06:37:31;42.90;;;17.90;;
19519;SDS011;9904;52.246;20.898;2023-03-04T06:39:58;41.43;;;17.20;;
19519;SDS011;9904;52.246;20.898;2023-03-04T06:42:25;43.33;;;16.57;;
19519;SDS011;9904;52.246;20.898;2023-03-04T06:44:51;45.00;;;17.73;;
19519;SDS011;9904;52.246;20.898;2023-03-04T06:47:18;44.23;;;18.83;;
19519;SDS011;9904;52.246;20.898;2023-03-04T06:49:44;45.73;;;18.10;;
19519;SDS011;9904;52.246;20.898;2023-03-04T06:52:11;37.47;;;16.60;;
19519;SDS011;9904;52.246;20.898;2023-03-04T06:54:38;45.53;;;17.93;;
19519;SDS011;9904;52.246;20.898;2023-03-04T06:57:05;45.03;;;18.20;;
19519;SDS011;9904;52.246;20.898;2023-03-04T06:59:32;41.77;;;17.70;;
19519;SDS011;9904;52.246;20.898;2023-03-04T07:01:59;37.97;;;16.93;;
19519;SDS011;9904;52.246;20.898;2023-03-04T07:04:26;43.77;;;17.63;;
19519;SDS011;9904;52.246;20.898;2023-03-04T07:06:52;41.23;;;16.53;;
19519;SDS011;9904;52.246;20.898;2023-03-04T07:09:19;42.50;;;16.57;;
19519;SDS011;9904;52.246;20.898;2023-03-04T07:11:45;46.07;;;17.40;;
19519;SDS011;9904;52.246;20.898;2023-03-04T07:14:12;50.80;;;19.30;;
19519;SDS011;9904;52.246;20.898;2023-03-04T07:16:39;41.57;;;18.03;;
19519;SDS011;9904;52.246;20.898;2023-03-04T07:19:06;38.47;;;17.80;;
19519;SDS011;9904;52.246;20.898;2023-03-04T07:21:33;47.33;;;17.87;;
19519;SDS011;9904;52.246;20.898;2023-03-04T07:23:59;43.40;;;17.53;;
19519;SDS011;9904;52.246;20.898;2023-03-04T07:26:26;36.90;;;16.03;;
19519;SDS011;9904;52.246;20.898;2023-03-04T07:28:53;39.00;;;15.80;;
19519;SDS011;9904;52.246;20.898;2023-03-04T07:31:21;39.73;;;16.80;;
19519;SDS011;9904;52.246;20.898;2023-03-04T07:33:50;36.30;;;16.37;;
19519;SDS011;9904;52.246;20.898;2023-03-04T07:36:17;33.90;;;15.23;;
19519;SDS011;9904;52.246;20.898;2023-03-04T07:38:45;37.70;;;14.97;;
19519;SDS011;9904;52.246;20.898;2023-03-04T07:41:13;38.97;;;15.33;;
19519;SDS011;9904;52.246;20.898;2023-03-04T07:43:42;42.70;;;16.40;;
19519;SDS011;9904;52.246;20.898;2023-03-04T07:46:09;38.07;;;15.47;;
19519;SDS011;9904;52.246;20.898;2023-03-04T07:48:36;43.23;;;16.50;;
19519;SDS011;9904;52.246;20.898;2023-03-04T07:51:04;34.87;;;15.63;;
19519;SDS011;9904;52.246;20.898;2023-03-04T07:53:35;33.37;;;15.13;;
19519;SDS011;9904;52.246;20.898;2023-03-04T07:56:02;37.23;;;16.67;;
19519;SDS011;9904;52.246;20.898;2023-03-04T07:58:30;38.83;;;16.03;;
19519;SDS011;9904;52.246;20.898;2023-03-04T08:00:57;34.00;;;14.87;;
19519;SDS011;9904;52.246;20.898;2023-03-04T08:03:23;38.90;;;15.73;;
19519;SDS011;9904;52.246;20.898;2023-03-04T08:05:51;51.40;;;15.03;;
19519;SDS011;9904;52.246;20.898;2023-03-04T08:08:18;31.03;;;14.53;;
19519;SDS011;9904;52.246;20.898;2023-03-04T08:10:44;36.97;;;15.67;;
19519;SDS011;9904;52.246;20.898;2023-03-04T08:13:11;35.20;;;14.63;;
19519;SDS011;9904;52.246;20.898;2023-03-04T08:15:40;36.60;;;14.40;;
19519;SDS011;9904;52.246;20.898;2023-03-04T08:18:07;40.77;;;15.13;;
19519;SDS011;9904;52.246;20.898;2023-03-04T08:20:34;38.60;;;14.07;;
19519;SDS011;9904;52.246;20.898;2023-03-04T08:23:00;33.30;;;13.70;;
19519;SDS011;9904;52.246;20.898;2023-03-04T08:25:27;33.43;;;13.60;;
19519;SDS011;9904;52.246;20.898;2023-03-04T08:27:53;33.73;;;13.83;;
19519;SDS011;9904;52.246;20.898;2023-03-04T08:30:20;39.93;;;15.40;;
19519;SDS011;9904;52.246;20.898;2023-03-04T08:32:46;37.47;;;14.93;;
19519;SDS011;9904;52.246;20.898;2023-03-04T08:35:13;39.07;;;16.73;;
19519;SDS011;9904;52.246;20.898;2023-03-04T08:37:40;37.47;;;14.63;;
19519;SDS011;9904;52.246;20.898;2023-03-04T08:40:06;40.50;;;15.97;;
19519;SDS011;9904;52.246;20.898;2023-03-04T08:42:33;36.73;;;15.70;;
19519;SDS011;9904;52.246;20.898;2023-03-04T08:45:00;34.53;;;15.13;;
19519;SDS011;9904;52.246;20.898;2023-03-04T08:47:26;32.27;;;14.00;;
19519;SDS011;9904;52.246;20.898;2023-03-04T08:49:53;34.27;;;14.53;;
19519;SDS011;9904;52.246;20.898;2023-03-04T08:52:19;37.80;;;14.73;;
19519;SDS011;9904;52.246;20.898;2023-03-04T08:54:46;39.60;;;14.83;;
19519;SDS011;9904;52.246;20.898;2023-03-04T08:57:12;32.70;;;13.47;;
19519;SDS011;9904;52.246;20.898;2023-03-04T08:59:39;33.80;;;14.00;;
19519;SDS011;9904;52.246;20.898;2023-03-04T09:02:06;37.47;;;14.63;;
19519;SDS011;9904;52.246;20.898;2023-03-04T09:04:33;40.17;;;15.03;;
19519;SDS011;9904;52.246;20.898;2023-03-04T09:06:59;36.67;;;14.67;;
19519;SDS011;9904;52.246;20.898;2023-03-04T09:09:26;35.73;;;13.90;;
19519;SDS011;9904;52.246;20.898;2023-03-04T09:11:52;40.17;;;14.57;;
19519;SDS011;9904;52.246;20.898;2023-03-04T09:14:19;38.73;;;14.80;;
19519;SDS011;9904;52.246;20.898;2023-03-04T09:16:46;32.00;;;13.67;;
19519;SDS011;9904;52.246;20.898;2023-03-04T09:19:12;36.00;;;13.90;;
19519;SDS011;9904;52.246;20.898;2023-03-04T09:21:38;31.17;;;13.63;;
19519;SDS011;9904;52.246;20.898;2023-03-04T09:24:05;34.60;;;13.57;;
19519;SDS011;9904;52.246;20.898;2023-03-04T09:26:32;34.83;;;12.27;;
19519;SDS011;9904;52.246;20.898;2023-03-04T09:28:59;30.40;;;13.57;;
19519;SDS011;9904;52.246;20.898;2023-03-04T09:31:27;33.53;;;13.73;;
19519;SDS011;9904;52.246;20.898;2023-03-04T09:33:55;30.63;;;12.63;;
19519;SDS011;9904;52.246;20.898;2023-03-04T09:36:23;35.50;;;13.57;;
19519;SDS011;9904;52.246;20.898;2023-03-04T09:38:50;33.33;;;12.87;;
19519;SDS011;9904;52.246;20.898;2023-03-04T09:41:23;33.83;;;12.90;;
19519;SDS011;9904;52.246;20.898;2023-03-04T09:43:51;36.63;;;13.60;;
19519;SDS011;9904;52.246;20.898;2023-03-04T09:46:35;31.47;;;13.43;;
19519;SDS011;9904;52.246;20.898;2023-03-04T09:49:04;35.23;;;14.17;;
19519;SDS011;9904;52.246;20.898;2023-03-04T09:54:30;34.53;;;12.90;;
19519;SDS011;9904;52.246;20.898;2023-03-04T09:56:59;36.43;;;12.70;;
19519;SDS011;9904;52.246;20.898;2023-03-04T09:59:39;35.10;;;12.43;;
19519;SDS011;9904;52.246;20.898;2023-03-04T10:02:18;31.97;;;13.10;;
19519;SDS011;9904;52.246;20.898;2023-03-04T10:04:50;37.60;;;13.60;;
19519;SDS011;9904;52.246;20.898;2023-03-04T10:07:20;28.90;;;12.47;;
19519;SDS011;9904;52.246;20.898;2023-03-04T10:09:59;32.20;;;12.80;;
19519;SDS011;9904;52.246;20.898;2023-03-04T10:12:31;30.23;;;12.33;;
19519;SDS011;9904;52.246;20.898;2023-03-04T10:15:01;30.93;;;12.77;;
19519;SDS011;9904;52.246;20.898;2023-03-04T10:17:34;34.27;;;12.27;;
19519;SDS011;9904;52.246;20.898;2023-03-04T10:20:04;34.73;;;13.60;;
19519;SDS011;9904;52.246;20.898;2023-03-04T10:22:42;28.37;;;11.83;;
19519;SDS011;9904;52.246;20.898;2023-03-04T10:25:24;32.30;;;13.23;;
19519;SDS011;9904;52.246;20.898;2023-03-04T10:27:56;31.80;;;12.27;;
19519;SDS011;9904;52.246;20.898;2023-03-04T10:33:29;30.67;;;12.10;;
19519;SDS011;9904;52.246;20.898;2023-03-04T10:38:33;27.63;;;12.57;;
19519;SDS011;9904;52.246;20.898;2023-03-04T10:41:12;43.73;;;14.37;;
19519;SDS011;9904;52.246;20.898;2023-03-04T10:43:41;30.33;;;13.50;;
19519;SDS011;9904;52.246;20.898;2023-03-04T10:46:12;43.23;;;13.27;;
19519;SDS011;9904;52.246;20.898;2023-03-04T10:48:39;39.23;;;12.83;;
19519;SDS011;9904;52.246;20.898;2023-03-04T10:51:26;33.50;;;14.27;;
19519;SDS011;9904;52.246;20.898;2023-03-04T10:54:03;37.77;;;13.57;;
19519;SDS011;9904;52.246;20.898;2023-03-04T10:56:37;35.10;;;13.03;;
19519;SDS011;9904;52.246;20.898;2023-03-04T11:01:58;38.77;;;14.63;;
19519;SDS011;9904;52.246;20.898;2023-03-04T11:04:26;39.67;;;14.33;;
19519;SDS011;9904;52.246;20.898;2023-03-04T11:06:58;35.80;;;13.43;;
19519;SDS011;9904;52.246;20.898;2023-03-04T11:09:28;42.77;;;14.17;;
19519;SDS011;9904;52.246;20.898;2023-03-04T11:11:59;40.20;;;13.83;;
19519;SDS011;9904;52.246;20.898;2023-03-04T11:14:27;35.57;;;13.23;;
19519;SDS011;9904;52.246;20.898;2023-03-04T11:17:01;32.87;;;13.50;;
19519;SDS011;9904;52.246;20.898;2023-03-04T11:19:40;35.63;;;13.53;;
19519;SDS011;9904;52.246;20.898;2023-03-04T11:22:08;43.97;;;14.83;;
19519;SDS011;9904;52.246;20.898;2023-03-04T11:24:35;41.67;;;13.03;;
19519;SDS011;9904;52.246;20.898;2023-03-04T11:27:17;31.43;;;12.27;;
19519;SDS011;9904;52.246;20.898;2023-03-04T11:30:09;38.23;;;13.17;;
19519;SDS011;9904;52.246;20.898;2023-03-04T11:32:46;36.23;;;12.90;;
19519;SDS011;9904;52.246;20.898;2023-03-04T11:35:26;33.43;;;12.87;;
19519;SDS011;9904;52.246;20.898;2023-03-04T11:40:54;36.07;;;13.53;;
19519;SDS011;9904;52.246;20.898;2023-03-04T11:51:36;34.27;;;13.00;;
19519;SDS011;9904;52.246;20.898;2023-03-04T11:56:56;34.80;;;14.40;;
19519;SDS011;9904;52.246;20.898;2023-03-04T11:59:43;33.77;;;14.07;;
19519;SDS011;9904;52.246;20.898;2023-03-04T12:02:15;36.90;;;14.80;;
19519;SDS011;9904;52.246;20.898;2023-03-04T12:13:27;38.30;;;14.77;;
19519;SDS011;9904;52.246;20.898;2023-03-04T12:18:29;46.33;;;16.63;;
19519;SDS011;9904;52.246;20.898;2023-03-04T12:21:14;50.00;;;18.30;;
19519;SDS011;9904;52.246;20.898;2023-03-04T12:29:07;46.07;;;17.40;;
19519;SDS011;9904;52.246;20.898;2023-03-04T12:31:46;41.33;;;16.07;;
19519;SDS011;9904;52.246;20.898;2023-03-04T12:37:15;36.57;;;13.37;;
19519;SDS011;9904;52.246;20.898;2023-03-04T12:42:47;37.97;;;13.47;;
19519;SDS011;9904;52.246;20.898;2023-03-04T12:45:26;27.90;;;13.00;;
19519;SDS011;9904;52.246;20.898;2023-03-04T12:48:04;27.10;;;11.77;;
19519;SDS011;9904;52.246;20.898;2023-03-04T12:55:49;36.97;;;12.23;;
19519;SDS011;9904;52.246;20.898;2023-03-04T12:58:18;34.07;;;13.07;;
19519;SDS011;9904;52.246;20.898;2023-03-04T13:06:35;31.53;;;12.10;;
19519;SDS011;9904;52.246;20.898;2023-03-04T13:09:17;30.43;;;11.70;;
19519;SDS011;9904;52.246;20.898;2023-03-04T13:12:02;26.50;;;11.83;;
19519;SDS011;9904;52.246;20.898;2023-03-04T13:20:42;31.10;;;12.10;;
19519;SDS011;9904;52.246;20.898;2023-03-04T13:25:46;28.10;;;8.87;;
19519;SDS011;9904;52.246;20.898;2023-03-04T13:28:19;25.98;;;12.70;;
19519;SDS011;9904;52.246;20.898;2023-03-04T13:35:48;33.63;;;13.87;;
19519;SDS011;9904;52.246;20.898;2023-03-04T13:38:24;31.60;;;14.07;;
19519;SDS011;9904;52.246;20.898;2023-03-04T14:02:09;16.40;;;7.63;;
19519;SDS011;9904;52.246;20.898;2023-03-04T14:04:37;8.97;;;4.80;;
19519;SDS011;9904;52.246;20.898;2023-03-04T14:12:45;15.37;;;5.83;;
19519;SDS011;9904;52.246;20.898;2023-03-04T14:15:20;9.57;;;4.17;;
19519;SDS011;9904;52.246;20.898;2023-03-04T14:17:52;12.23;;;4.20;;
19519;SDS011;9904;52.246;20.898;2023-03-04T14:20:26;8.93;;;3.33;;
19519;SDS011;9904;52.246;20.898;2023-03-04T14:22:55;6.73;;;3.10;;
19519;SDS011;9904;52.246;20.898;2023-03-04T14:28:11;6.53;;;2.80;;
19519;SDS011;9904;52.246;20.898;2023-03-04T14:30:40;8.60;;;2.80;;
19519;SDS011;9904;52.246;20.898;2023-03-04T14:33:18;8.43;;;2.80;;
19519;SDS011;9904;52.246;20.898;2023-03-04T14:35:48;7.43;;;2.67;;
19519;SDS011;9904;52.246;20.898;2023-03-04T14:38:24;5.17;;;2.00;;
19519;SDS011;9904;52.246;20.898;2023-03-04T14:40:54;7.13;;;2.20;;
19519;SDS011;9904;52.246;20.898;2023-03-04T14:43:24;6.00;;;1.80;;
19519;SDS011;9904;52.246;20.898;2023-03-04T14:45:52;6.27;;;2.30;;
19519;SDS011;9904;52.246;20.898;2023-03-04T14:48:27;4.13;;;1.90;;
19519;SDS011;9904;52.246;20.898;2023-03-04T14:50:56;7.67;;;2.10;;
19519;SDS011;9904;52.246;20.898;2023-03-04T14:53:32;8.33;;;2.33;;
19519;SDS011;9904;52.246;20.898;2023-03-04T14:58:36;4.03;;;1.77;;
19519;SDS011;9904;52.246;20.898;2023-03-04T15:01:12;8.10;;;2.07;;
19519;SDS011;9904;52.246;20.898;2023-03-04T15:03:54;9.13;;;2.43;;
19519;SDS011;9904;52.246;20.898;2023-03-04T15:06:23;6.10;;;2.10;;
19519;SDS011;9904;52.246;20.898;2023-03-04T15:09:01;5.67;;;1.90;;
19519;SDS011;9904;52.246;20.898;2023-03-04T15:11:46;6.07;;;1.83;;
19519;SDS011;9904;52.246;20.898;2023-03-04T15:17:21;3.10;;;1.53;;
19519;SDS011;9904;52.246;20.898;2023-03-04T15:19:58;5.90;;;1.50;;
19519;SDS011;9904;52.246;20.898;2023-03-04T15:22:25;4.43;;;1.40;;
19519;SDS011;9904;52.246;20.898;2023-03-04T15:24:52;5.30;;;1.20;;
19519;SDS011;9904;52.246;20.898;2023-03-04T15:27:19;3.87;;;1.43;;
19519;SDS011;9904;52.246;20.898;2023-03-04T15:29:52;4.00;;;1.20;;
19519;SDS011;9904;52.246;20.898;2023-03-04T15:32:24;4.27;;;1.23;;
19519;SDS011;9904;52.246;20.898;2023-03-04T15:34:54;2.93;;;1.03;;
19519;SDS011;9904;52.246;20.898;2023-03-04T15:37:22;4.13;;;1.50;;
19519;SDS011;9904;52.246;20.898;2023-03-04T15:39:51;3.80;;;1.30;;
19519;SDS011;9904;52.246;20.898;2023-03-04T15:42:17;2.13;;;1.00;;
19519;SDS011;9904;52.246;20.898;2023-03-04T15:44:44;3.63;;;1.20;;
19519;SDS011;9904;52.246;20.898;2023-03-04T15:47:11;3.10;;;1.10;;
19519;SDS011;9904;52.246;20.898;2023-03-04T15:49:39;2.70;;;0.80;;
19519;SDS011;9904;52.246;20.898;2023-03-04T15:52:10;4.17;;;1.20;;
19519;SDS011;9904;52.246;20.898;2023-03-04T15:54:41;5.70;;;1.13;;
19519;SDS011;9904;52.246;20.898;2023-03-04T15:57:12;7.63;;;1.13;;
19519;SDS011;9904;52.246;20.898;2023-03-04T15:59:45;4.03;;;1.10;;
19519;SDS011;9904;52.246;20.898;2023-03-04T16:02:20;6.77;;;1.33;;
19519;SDS011;9904;52.246;20.898;2023-03-04T16:04:48;1.93;;;1.00;;
19519;SDS011;9904;52.246;20.898;2023-03-04T16:07:18;6.20;;;1.47;;
19519;SDS011;9904;52.246;20.898;2023-03-04T16:09:47;7.90;;;1.00;;
19519;SDS011;9904;52.246;20.898;2023-03-04T16:12:18;4.00;;;1.30;;
19519;SDS011;9904;52.246;20.898;2023-03-04T16:14:44;4.27;;;1.10;;
19519;SDS011;9904;52.246;20.898;2023-03-04T16:17:12;8.00;;;1.83;;
19519;SDS011;9904;52.246;20.898;2023-03-04T16:19:41;5.47;;;1.23;;
19519;SDS011;9904;52.246;20.898;2023-03-04T16:22:09;3.40;;;1.20;;
19519;SDS011;9904;52.246;20.898;2023-03-04T16:24:39;7.70;;;1.50;;
19519;SDS011;9904;52.246;20.898;2023-03-04T16:27:18;4.53;;;1.10;;
19519;SDS011;9904;52.246;20.898;2023-03-04T16:29:47;9.40;;;1.50;;
19519;SDS011;9904;52.246;20.898;2023-03-04T16:32:13;4.03;;;1.00;;
19519;SDS011;9904;52.246;20.898;2023-03-04T16:34:43;4.90;;;1.37;;
19519;SDS011;9904;52.246;20.898;2023-03-04T16:37:17;4.37;;;1.00;;
19519;SDS011;9904;52.246;20.898;2023-03-04T16:39:44;7.03;;;1.40;;
19519;SDS011;9904;52.246;20.898;2023-03-04T16:42:15;7.17;;;1.43;;
19519;SDS011;9904;52.246;20.898;2023-03-04T16:44:44;6.83;;;1.40;;
19519;SDS011;9904;52.246;20.898;2023-03-04T16:47:11;7.47;;;1.13;;
19519;SDS011;9904;52.246;20.898;2023-03-04T16:49:37;3.20;;;0.90;;
19519;SDS011;9904;52.246;20.898;2023-03-04T16:52:04;3.90;;;1.00;;
19519;SDS011;9904;52.246;20.898;2023-03-04T16:54:33;4.90;;;1.47;;
19519;SDS011;9904;52.246;20.898;2023-03-04T16:57:01;2.87;;;1.10;;
19519;SDS011;9904;52.246;20.898;2023-03-04T16:59:28;6.00;;;1.17;;
19519;SDS011;9904;52.246;20.898;2023-03-04T17:01:54;4.63;;;1.37;;
19519;SDS011;9904;52.246;20.898;2023-03-04T17:04:21;8.23;;;1.20;;
19519;SDS011;9904;52.246;20.898;2023-03-04T17:06:48;5.47;;;1.23;;
19519;SDS011;9904;52.246;20.898;2023-03-04T17:09:15;3.40;;;1.30;;
19519;SDS011;9904;52.246;20.898;2023-03-04T17:11:41;4.50;;;0.90;;
19519;SDS011;9904;52.246;20.898;2023-03-04T17:14:09;6.37;;;1.17;;
19519;SDS011;9904;52.246;20.898;2023-03-04T17:16:35;4.20;;;1.10;;
19519;SDS011;9904;52.246;20.898;2023-03-04T17:19:02;6.53;;;1.20;;
19519;SDS011;9904;52.246;20.898;2023-03-04T17:21:28;3.80;;;1.20;;
19519;SDS011;9904;52.246;20.898;2023-03-04T17:23:55;6.20;;;1.47;;
19519;SDS011;9904;52.246;20.898;2023-03-04T17:26:21;4.40;;;1.37;;
19519;SDS011;9904;52.246;20.898;2023-03-04T17:28:48;7.00;;;1.60;;
19519;SDS011;9904;52.246;20.898;2023-03-04T17:31:17;4.17;;;1.20;;
19519;SDS011;9904;52.246;20.898;2023-03-04T17:33:44;6.07;;;1.30;;
19519;SDS011;9904;52.246;20.898;2023-03-04T17:36:12;9.10;;;1.67;;
19519;SDS011;9904;52.246;20.898;2023-03-04T17:38:40;6.40;;;2.10;;
19519;SDS011;9904;52.246;20.898;2023-03-04T17:41:08;10.90;;;2.27;;
19519;SDS011;9904;52.246;20.898;2023-03-04T17:43:38;7.30;;;2.07;;
19519;SDS011;9904;52.246;20.898;2023-03-04T17:46:06;4.57;;;1.60;;
19519;SDS011;9904;52.246;20.898;2023-03-04T17:48:33;5.43;;;1.60;;
19519;SDS011;9904;52.246;20.898;2023-03-04T17:51:00;5.20;;;1.30;;
19519;SDS011;9904;52.246;20.898;2023-03-04T17:53:27;4.87;;;1.30;;
19519;SDS011;9904;52.246;20.898;2023-03-04T17:55:55;4.90;;;1.20;;
19519;SDS011;9904;52.246;20.898;2023-03-04T17:58:22;4.37;;;1.10;;
19519;SDS011;9904;52.246;20.898;2023-03-04T18:00:52;4.63;;;1.10;;
19519;SDS011;9904;52.246;20.898;2023-03-04T18:03:19;5.00;;;1.70;;
19519;SDS011;9904;52.246;20.898;2023-03-04T18:05:46;3.57;;;1.20;;
19519;SDS011;9904;52.246;20.898;2023-03-04T18:08:13;4.70;;;1.50;;
19519;SDS011;9904;52.246;20.898;2023-03-04T18:10:40;3.83;;;1.10;;
19519;SDS011;9904;52.246;20.898;2023-03-04T18:13:06;5.70;;;1.17;;
19519;SDS011;9904;52.246;20.898;2023-03-04T18:15:33;6.40;;;1.40;;
19519;SDS011;9904;52.246;20.898;2023-03-04T18:18:00;2.93;;;1.37;;
19519;SDS011;9904;52.246;20.898;2023-03-04T18:20:26;5.40;;;1.33;;
19519;SDS011;9904;52.246;20.898;2023-03-04T18:22:53;8.40;;;1.57;;
19519;SDS011;9904;52.246;20.898;2023-03-04T18:25:22;5.20;;;1.40;;
19519;SDS011;9904;52.246;20.898;2023-03-04T18:27:49;8.80;;;1.40;;
19519;SDS011;9904;52.246;20.898;2023-03-04T18:30:16;5.77;;;1.70;;
19519;SDS011;9904;52.246;20.898;2023-03-04T18:32:46;6.23;;;1.33;;
19519;SDS011;9904;52.246;20.898;2023-03-04T18:35:17;6.40;;;2.00;;
19519;SDS011;9904;52.246;20.898;2023-03-04T18:37:45;9.53;;;1.67;;
19519;SDS011;9904;52.246;20.898;2023-03-04T18:40:12;4.03;;;1.60;;
19519;SDS011;9904;52.246;20.898;2023-03-04T18:42:40;6.77;;;1.47;;
19519;SDS011;9904;52.246;20.898;2023-03-04T18:45:12;9.80;;;1.40;;
19519;SDS011;9904;52.246;20.898;2023-03-04T18:47:43;6.57;;;1.88;;
19519;SDS011;9904;52.246;20.898;2023-03-04T18:50:11;4.37;;;1.50;;
19519;SDS011;9904;52.246;20.898;2023-03-04T18:52:38;6.22;;;1.52;;
19519;SDS011;9904;52.246;20.898;2023-03-04T18:55:05;4.80;;;1.53;;
19519;SDS011;9904;52.246;20.898;2023-03-04T18:57:31;11.57;;;1.90;;
19519;SDS011;9904;52.246;20.898;2023-03-04T18:59:59;6.20;;;1.43;;
19519;SDS011;9904;52.246;20.898;2023-03-04T19:04:59;4.37;;;1.30;;
19519;SDS011;9904;52.246;20.898;2023-03-04T19:07:28;6.20;;;1.73;;
19519;SDS011;9904;52.246;20.898;2023-03-04T19:09:55;13.07;;;1.60;;
19519;SDS011;9904;52.246;20.898;2023-03-04T19:12:22;4.40;;;1.37;;
19519;SDS011;9904;52.246;20.898;2023-03-04T19:14:48;7.15;;;1.60;;
19519;SDS011;9904;52.246;20.898;2023-03-04T19:17:15;6.90;;;1.50;;
19519;SDS011;9904;52.246;20.898;2023-03-04T19:19:42;7.80;;;1.50;;
19519;SDS011;9904;52.246;20.898;2023-03-04T19:22:09;4.57;;;1.30;;
19519;SDS011;9904;52.246;20.898;2023-03-04T19:24:35;4.97;;;1.23;;
19519;SDS011;9904;52.246;20.898;2023-03-04T19:27:02;3.97;;;1.30;;
19519;SDS011;9904;52.246;20.898;2023-03-04T19:29:30;4.53;;;1.40;;
19519;SDS011;9904;52.246;20.898;2023-03-04T19:31:57;4.80;;;1.60;;
19519;SDS011;9904;52.246;20.898;2023-03-04T19:34:24;6.40;;;1.70;;
19519;SDS011;9904;52.246;20.898;2023-03-04T19:36:50;4.10;;;1.43;;
19519;SDS011;9904;52.246;20.898;2023-03-04T19:39:17;5.80;;;1.60;;
19519;SDS011;9904;52.246;20.898;2023-03-04T19:41:43;4.93;;;1.43;;
19519;SDS011;9904;52.246;20.898;2023-03-04T19:44:10;8.53;;;1.90;;
19519;SDS011;9904;52.246;20.898;2023-03-04T19:46:37;7.50;;;2.07;;
19519;SDS011;9904;52.246;20.898;2023-03-04T19:49:03;5.27;;;2.10;;
19519;SDS011;9904;52.246;20.898;2023-03-04T19:51:30;10.67;;;2.20;;
19519;SDS011;9904;52.246;20.898;2023-03-04T19:53:58;8.77;;;2.83;;
19519;SDS011;9904;52.246;20.898;2023-03-04T19:56:25;7.20;;;2.57;;
19519;SDS011;9904;52.246;20.898;2023-03-04T19:58:55;13.60;;;4.80;;
19519;SDS011;9904;52.246;20.898;2023-03-04T20:01:25;12.57;;;3.93;;
19519;SDS011;9904;52.246;20.898;2023-03-04T20:03:54;14.80;;;3.93;;
19519;SDS011;9904;52.246;20.898;2023-03-04T20:06:22;13.70;;;4.00;;
19519;SDS011;9904;52.246;20.898;2023-03-04T20:08:49;10.17;;;3.63;;
19519;SDS011;9904;52.246;20.898;2023-03-04T20:11:16;13.43;;;4.33;;
19519;SDS011;9904;52.246;20.898;2023-03-04T20:13:43;11.00;;;4.23;;
19519;SDS011;9904;52.246;20.898;2023-03-04T20:16:10;14.90;;;4.53;;
19519;SDS011;9904;52.246;20.898;2023-03-04T20:18:38;8.33;;;3.27;;
19519;SDS011;9904;52.246;20.898;2023-03-04T20:21:05;14.30;;;4.40;;
19519;SDS011;9904;52.246;20.898;2023-03-04T20:23:31;14.70;;;4.27;;
19519;SDS011;9904;52.246;20.898;2023-03-04T20:25:59;12.20;;;4.17;;
19519;SDS011;9904;52.246;20.898;2023-03-04T20:28:26;12.97;;;3.77;;
19519;SDS011;9904;52.246;20.898;2023-03-04T20:30:53;13.13;;;3.93;;
19519;SDS011;9904;52.246;20.898;2023-03-04T20:33:38;13.43;;;4.17;;
19519;SDS011;9904;52.246;20.898;2023-03-04T20:36:04;12.33;;;3.93;;
19519;SDS011;9904;52.246;20.898;2023-03-04T20:38:32;13.73;;;3.90;;
19519;SDS011;9904;52.246;20.898;2023-03-04T20:40:58;13.43;;;3.70;;
19519;SDS011;9904;52.246;20.898;2023-03-04T20:43:25;9.73;;;3.70;;
19519;SDS011;9904;52.246;20.898;2023-03-04T20:45:53;12.67;;;4.13;;
19519;SDS011;9904;52.246;20.898;2023-03-04T20:48:20;15.03;;;4.20;;
19519;SDS011;9904;52.246;20.898;2023-03-04T20:50:47;10.73;;;4.13;;
19519;SDS011;9904;52.246;20.898;2023-03-04T20:53:14;13.60;;;4.50;;
19519;SDS011;9904;52.246;20.898;2023-03-04T20:55:41;16.97;;;6.57;;
19519;SDS011;9904;52.246;20.898;2023-03-04T20:58:07;13.80;;;5.03;;
19519;SDS011;9904;52.246;20.898;2023-03-04T21:00:34;18.47;;;5.30;;